Kinston, North Carolina
Current Conditions -  °F | °C
As of 9:56 AM on Saturday 20 Dec 2014 (Local Time) from KISO Reporting Station
Light Rain Light Rain  
Wind Chill: 33°   Ceiling: Unl
Heat Index: 37°   Visibility: 10mi
Dew Point: 34°   Wind: 6mph
Humidity: 87%   Direction: 20°NNE
Pressure: 30.3"   Gusts: NA
Location:  35.27°N, 77.58°W
Report Text: KISO 201456Z AUTO 02005KT 10SM -RA SCT007 03/01 A3030 RMK AO2
Loading
Personal Weather Stations






























Interactive Weather Map New forecast layout! Learn more

10-Day Weather Forecast

Advertisements
Track Severe Weather on mobile